Aérodrome :
LOGIN :

S'inscrire | Disclaimer

   EN    FR    IT 

 










Légende :    VFR   VFR Marginal   IFR   IFR Intensif   IFR Très Intensif
Visi : 
Plafond : 
>= 8 km
>= 3000ft
5 à 8 km
1000 à 3000 ft
1500m à 5 km
500 à 1000 ft
800 à 1500m
200 à 500 ft
< 800m
< 200 ft
Symboles :   Orages  Brouillard  Fortes neiges  Fortes précipitations  Vent > 20 kt
SIGMETs :   Divers  Orages  Givrage  Turbulence  Onde Orograph.  Cendres Volcan.






- Altitude de l'aérodrome : 755 ft
- Code IATA : DRS


EDDC - Dresden Klotzsche

DERNIER METAR :
  • 021150Z AUTO VRB03KT CAVOK 22/07 Q1025 NOSIG

METARs EXPIRÉS :
  • 021120Z AUTO VRB05KT CAVOK 23/08 Q1025 NOSIG
  • 021050Z AUTO 20004KT 170V270 CAVOK 21/07 Q1025 NOSIG
  • 021020Z AUTO VRB02KT CAVOK 23/09 Q1025 NOSIG
  • 020950Z AUTO VRB03KT CAVOK 21/08 Q1025 NOSIG
  • 020920Z AUTO VRB04KT 9999 FEW047 21/08 Q1025 NOSIG

TAF TAF EDDC
Valide du 02 à 12h jusqu'au 03 à 12h UTC


021100Z 0212/0312 34004KT CAVOK
BECMG 0213/0216 10006KT
BECMG 0219/0222 17007KT



MET'MAP, la Météo Aéronautique d'un coup d'oeil ! - Copyright ORBIFLY Décembre 2007 - Disclaimer

ORBIFLY MET'MAP TEAM :

Programmation & Développement : Alexandra Zaïnal
Sur une idée originale de : Baudouin d'Aumeries
Soutien technique & logistique : Manuel Goepfert
Assistance : Marc-Olivier Méhu




SOURCES & CREDITS :

   NOAA